Heights Corner, Indiana
Current Conditions -  °F | °C
As of 2:53 PM on Wednesday 26 Nov 2014 (Local Time) from KBMG Reporting Station
Clear Clear  
Wind Chill: 32°   Ceiling: Unl
Heat Index: 37°   Visibility: 10mi
Dew Point: 25°   Wind: 7mph
Humidity: 62%   Direction: 110°ESE
Pressure: 30.02"   Gusts: NA
Location:  39.3008°N, 86.8112°W
Report Text: KBMG 261953Z 11006KT 10SM CLR 03/M04 A3002 RMK AO2 SLP174 T00281039
Loading
Personal Weather Stations






























Interactive Weather Map New forecast layout! Learn more

10-Day Weather Forecast

Advertisements
Track Severe Weather on mobile